Time;durP1;ratioP1;P1;durP2;ratioP2;P2;SDS_P1;SDS_P2;PMS_P1;PMS_P2;Temp;Humidity;BMP_temperature;BMP_pressure;BME280_temperature;BME280_humidity;BME280_pressure;Samples;Min_cycle;Max_cycle;Signal;HPM_P1;HPM_P2
2023/07/23 00:01:31;;;;;;;7.30;6.20;;;14.00;99.90;;;;;;5085031;28;20210;-67
2023/07/23 00:03:58;;;;;;;6.03;5.40;;;14.00;99.90;;;;;;5068507;28;20213;-68
2023/07/23 00:06:26;;;;;;;7.17;5.70;;;14.10;99.90;;;;;;5072251;28;20762;-67
2023/07/23 00:08:53;;;;;;;6.67;5.93;;;14.10;99.90;;;;;;5067432;28;20202;-67
2023/07/23 00:11:20;;;;;;;7.53;5.13;;;14.10;99.90;;;;;;5082770;28;20267;-67
2023/07/23 00:13:47;;;;;;;6.47;5.83;;;14.10;99.90;;;;;;5084849;28;20742;-67
2023/07/23 00:16:13;;;;;;;9.30;6.83;;;14.10;99.90;;;;;;5080905;28;20186;-67
2023/07/23 00:18:40;;;;;;;6.80;6.10;;;14.10;99.90;;;;;;5081737;28;20232;-67
2023/07/23 00:21:07;;;;;;;7.87;6.10;;;14.10;99.90;;;;;;5055272;28;20452;-67
2023/07/23 00:23:35;;;;;;;7.80;6.43;;;14.10;99.90;;;;;;5083497;28;20243;-67
2023/07/23 00:26:03;;;;;;;8.07;6.90;;;14.10;99.90;;;;;;5071318;28;20213;-67
2023/07/23 00:28:29;;;;;;;10.27;6.90;;;14.10;99.90;;;;;;5084655;28;20242;-67
2023/07/23 00:30:56;;;;;;;8.10;7.13;;;14.00;99.90;;;;;;5082169;28;20210;-67
2023/07/23 00:33:24;;;;;;;7.73;6.50;;;14.10;99.90;;;;;;5076786;28;20243;-68
2023/07/23 00:35:50;;;;;;;8.00;7.20;;;14.10;99.90;;;;;;5057056;28;20285;-68
2023/07/23 00:38:17;;;;;;;9.63;6.90;;;14.10;99.90;;;;;;5080805;28;20190;-68
2023/07/23 00:40:45;;;;;;;8.27;6.90;;;14.10;99.90;;;;;;5072905;28;20650;-67
2023/07/23 00:43:12;;;;;;;8.90;6.23;;;14.10;99.90;;;;;;5081184;28;20182;-67
2023/07/23 00:45:40;;;;;;;8.73;7.27;;;14.10;99.90;;;;;;5083399;28;20218;-67
2023/07/23 00:48:07;;;;;;;7.97;7.17;;;14.10;99.90;;;;;;5066995;28;20186;-67
2023/07/23 00:50:34;;;;;;;10.07;7.87;;;14.10;99.90;;;;;;5059774;28;20659;-67
2023/07/23 00:53:01;;;;;;;8.10;7.00;;;14.10;99.90;;;;;;5079892;28;20213;-67
2023/07/23 00:55:28;;;;;;;10.70;7.43;;;14.10;99.90;;;;;;5072582;28;20768;-67
2023/07/23 00:57:56;;;;;;;9.77;7.13;;;14.10;99.90;;;;;;5081859;28;20250;-67
2023/07/23 01:00:23;;;;;;;9.33;7.23;;;14.00;99.90;;;;;;5077298;28;20202;-67
2023/07/23 01:02:50;;;;;;;8.00;7.23;;;14.10;99.90;;;;;;5075254;28;20193;-68
2023/07/23 01:05:17;;;;;;;12.63;8.17;;;14.10;99.90;;;;;;5081003;28;20962;-67
2023/07/23 01:07:45;;;;;;;8.57;7.47;;;14.10;99.90;;;;;;5063331;28;20206;-67
2023/07/23 01:10:13;;;;;;;9.70;8.27;;;14.10;99.90;;;;;;5069271;28;20224;-67
2023/07/23 01:12:41;;;;;;;10.60;8.03;;;14.10;99.90;;;;;;5083546;28;20703;-67
2023/07/23 01:15:11;;;;;;;12.30;8.50;;;14.10;99.90;;;;;;5071104;28;20182;-67
2023/07/23 01:17:39;;;;;;;9.93;8.87;;;14.10;99.90;;;;;;5074019;28;20194;-67
2023/07/23 01:20:08;;;;;;;12.30;9.23;;;14.10;99.90;;;;;;5079487;28;20225;-67
2023/07/23 01:22:38;;;;;;;10.87;9.60;;;14.10;99.90;;;;;;5065230;28;20205;-67
2023/07/23 01:25:06;;;;;;;11.23;9.77;;;14.20;99.90;;;;;;5078327;28;20213;-67
2023/07/23 01:27:33;;;;;;;13.27;10.10;;;14.20;99.90;;;;;;5073429;28;20209;-67
2023/07/23 01:30:00;;;;;;;12.67;9.97;;;14.20;99.90;;;;;;5072222;28;20221;-67
2023/07/23 01:32:27;;;;;;;12.07;10.53;;;14.20;99.90;;;;;;5080647;28;20603;-67
2023/07/23 01:34:55;;;;;;;12.00;10.73;;;14.20;99.90;;;;;;5080572;28;20182;-68
2023/07/23 01:37:23;;;;;;;12.23;10.70;;;14.20;99.90;;;;;;5082096;28;20821;-68
2023/07/23 01:39:51;;;;;;;13.03;11.50;;;14.20;99.90;;;;;;5064100;28;20213;-67
2023/07/23 01:42:18;;;;;;;15.07;11.87;;;14.20;99.90;;;;;;5066562;28;20198;-67
2023/07/23 01:44:45;;;;;;;14.47;12.27;;;14.20;99.90;;;;;;5074067;28;20936;-67
2023/07/23 01:47:12;;;;;;;13.43;12.03;;;14.30;99.90;;;;;;5080606;28;20930;-67
2023/07/23 01:49:39;;;;;;;16.43;11.83;;;14.30;99.90;;;;;;5081675;28;20196;-67
2023/07/23 01:52:06;;;;;;;14.57;12.03;;;14.30;99.90;;;;;;5077632;28;20844;-67
2023/07/23 01:54:33;;;;;;;14.30;12.57;;;14.30;99.90;;;;;;5066191;28;20669;-67
2023/07/23 01:57:02;;;;;;;13.80;11.53;;;14.30;99.90;;;;;;5064671;28;20258;-67
2023/07/23 01:59:29;;;;;;;13.13;11.83;;;14.30;99.90;;;;;;5075243;28;20293;-67
2023/07/23 02:01:56;;;;;;;13.43;11.43;;;14.30;99.90;;;;;;5079335;28;20186;-67
2023/07/23 02:04:23;;;;;;;15.17;12.17;;;14.30;99.90;;;;;;5080794;28;20251;-67
2023/07/23 02:06:50;;;;;;;15.00;12.43;;;14.30;99.90;;;;;;5081891;28;20194;-67
2023/07/23 02:09:17;;;;;;;14.00;11.63;;;14.30;99.90;;;;;;5076142;28;20898;-67
2023/07/23 02:11:44;;;;;;;14.97;12.33;;;14.30;99.90;;;;;;5057349;28;20303;-67
2023/07/23 02:14:12;;;;;;;14.23;12.23;;;14.30;99.90;;;;;;5076411;28;20181;-68
2023/07/23 02:16:39;;;;;;;13.43;12.03;;;14.30;99.90;;;;;;5080939;28;20209;-67
2023/07/23 02:19:06;;;;;;;13.90;11.57;;;14.30;99.90;;;;;;5078070;28;20193;-67
2023/07/23 02:21:33;;;;;;;13.60;11.07;;;14.40;99.90;;;;;;5082501;28;20213;-67
2023/07/23 02:24:00;;;;;;;16.73;12.33;;;14.40;99.90;;;;;;5074959;28;20187;-67
2023/07/23 02:26:26;;;;;;;16.43;12.40;;;14.40;99.90;;;;;;5058006;28;20206;-67
2023/07/23 02:28:53;;;;;;;13.40;11.40;;;14.40;99.90;;;;;;5081233;28;20209;-68
2023/07/23 02:31:21;;;;;;;13.53;11.33;;;14.40;99.90;;;;;;5096403;28;20218;-67
2023/07/23 02:33:48;;;;;;;15.30;12.00;;;14.40;99.90;;;;;;5085025;28;20554;-67
2023/07/23 02:36:15;;;;;;;14.07;11.30;;;14.40;99.90;;;;;;5084028;28;20239;-68
2023/07/23 02:38:43;;;;;;;12.57;11.27;;;14.40;99.90;;;;;;5077302;28;20321;-67
2023/07/23 02:41:10;;;;;;;13.67;11.80;;;14.40;99.90;;;;;;5058955;28;20229;-67
2023/07/23 02:43:36;;;;;;;14.17;11.63;;;14.50;99.90;;;;;;5086587;28;21298;-67
2023/07/23 02:46:03;;;;;;;16.43;12.43;;;14.50;99.90;;;;;;5067405;28;20263;-67
2023/07/23 02:48:32;;;;;;;13.03;11.73;;;14.50;99.90;;;;;;5080833;28;20196;-68
2023/07/23 02:50:58;;;;;;;13.30;11.90;;;14.50;99.90;;;;;;5080210;28;20263;-67
2023/07/23 02:53:26;;;;;;;13.70;11.53;;;14.50;99.90;;;;;;5075791;28;20541;-68
2023/07/23 02:55:54;;;;;;;15.00;12.27;;;14.50;99.90;;;;;;5083634;28;20190;-67
2023/07/23 02:58:21;;;;;;;15.03;11.80;;;14.50;99.90;;;;;;5064494;28;20212;-68
2023/07/23 03:00:48;;;;;;;13.23;11.50;;;14.50;99.90;;;;;;5073248;28;20356;-67
2023/07/23 03:03:15;;;;;;;17.00;11.33;;;14.50;99.90;;;;;;5084493;28;20186;-68
2023/07/23 03:05:44;;;;;;;13.53;11.77;;;14.50;99.90;;;;;;5076643;28;20217;-67
2023/07/23 03:08:11;;;;;;;15.87;12.10;;;14.50;99.90;;;;;;5077650;28;20738;-68
2023/07/23 03:10:37;;;;;;;14.57;12.13;;;14.50;99.90;;;;;;5081646;28;20216;-68
2023/07/23 03:13:04;;;;;;;16.63;11.87;;;14.50;99.90;;;;;;5068122;28;20205;-67
2023/07/23 03:15:31;;;;;;;14.60;11.70;;;14.50;99.90;;;;;;5070488;28;20483;-68
2023/07/23 03:17:58;;;;;;;14.60;11.20;;;14.50;99.90;;;;;;5081268;28;20592;-67
2023/07/23 03:20:25;;;;;;;15.17;11.53;;;14.50;99.90;;;;;;5074944;28;20290;-67
2023/07/23 03:22:53;;;;;;;17.17;11.33;;;14.50;99.90;;;;;;5082092;28;20186;-67
2023/07/23 03:25:20;;;;;;;13.90;11.03;;;14.50;99.90;;;;;;5082462;28;20198;-68
2023/07/23 03:27:47;;;;;;;14.00;12.00;;;14.50;99.90;;;;;;5067090;28;20767;-67
2023/07/23 03:30:14;;;;;;;12.57;10.20;;;14.50;99.90;;;;;;5081419;28;20252;-68
2023/07/23 03:32:41;;;;;;;11.83;10.50;;;14.50;99.90;;;;;;5068081;28;20221;-67
2023/07/23 03:35:08;;;;;;;15.73;11.70;;;14.50;99.90;;;;;;5077888;28;20662;-68
2023/07/23 03:37:35;;;;;;;16.90;11.27;;;14.50;99.90;;;;;;5081056;28;20239;-68
2023/07/23 03:40:04;;;;;;;14.53;10.77;;;14.50;99.90;;;;;;5084692;28;20201;-68
2023/07/23 03:42:31;;;;;;;15.90;11.70;;;14.50;99.90;;;;;;5062653;28;20938;-67
2023/07/23 03:44:58;;;;;;;13.30;10.73;;;14.50;99.90;;;;;;5084087;28;20186;-67
2023/07/23 03:47:25;;;;;;;13.70;10.67;;;14.50;99.90;;;;;;5066004;28;20209;-67
2023/07/23 03:49:52;;;;;;;13.07;10.13;;;14.50;99.90;;;;;;5077138;28;20625;-67
2023/07/23 03:52:19;;;;;;;12.67;10.47;;;14.50;99.90;;;;;;5082799;28;20202;-68
2023/07/23 03:54:46;;;;;;;14.80;9.97;;;14.50;99.90;;;;;;5083850;28;20182;-67
2023/07/23 03:57:14;;;;;;;12.03;10.77;;;14.50;99.90;;;;;;5082252;28;20190;-68
2023/07/23 03:59:42;;;;;;;13.73;10.47;;;14.50;99.90;;;;;;5061026;28;20202;-67
2023/07/23 04:02:10;;;;;;;11.83;10.63;;;14.60;99.90;;;;;;5077145;28;20747;-67
2023/07/23 04:04:38;;;;;;;12.60;10.83;;;14.50;99.90;;;;;;5067291;28;21103;-68
2023/07/23 04:07:06;;;;;;;14.03;9.73;;;14.60;99.90;;;;;;5084600;28;20689;-67
2023/07/23 04:09:33;;;;;;;12.87;10.90;;;14.50;99.90;;;;;;5079570;28;20267;-68
2023/07/23 04:12:01;;;;;;;15.50;10.37;;;14.50;99.90;;;;;;5085019;28;20186;-67
2023/07/23 04:14:29;;;;;;;13.10;10.17;;;14.50;99.90;;;;;;5059063;28;20206;-67
2023/07/23 04:16:56;;;;;;;14.07;11.30;;;14.60;99.90;;;;;;5069699;28;20765;-67
2023/07/23 04:19:23;;;;;;;11.10;10.00;;;14.60;99.90;;;;;;5062079;28;20659;-68
2023/07/23 04:21:50;;;;;;;12.27;10.80;;;14.60;99.90;;;;;;5080096;28;20221;-67
2023/07/23 04:24:17;;;;;;;14.17;9.53;;;14.60;99.90;;;;;;5083474;28;20190;-68
2023/07/23 04:26:44;;;;;;;14.10;10.90;;;14.60;99.90;;;;;;5082043;28;20701;-67
2023/07/23 04:29:11;;;;;;;12.17;9.87;;;14.60;99.90;;;;;;5076328;28;20267;-67
2023/07/23 04:31:39;;;;;;;11.60;9.70;;;14.60;99.90;;;;;;5059848;28;20267;-67
2023/07/23 04:34:06;;;;;;;14.23;10.60;;;14.50;99.90;;;;;;5072398;28;20285;-67
2023/07/23 04:36:33;;;;;;;11.30;10.10;;;14.50;99.90;;;;;;5074972;28;20697;-68
2023/07/23 04:39:03;;;;;;;11.37;10.13;;;14.60;99.90;;;;;;5081436;28;20174;-67
2023/07/23 04:41:30;;;;;;;12.67;10.33;;;14.60;99.90;;;;;;5071212;28;20598;-67
2023/07/23 04:43:57;;;;;;;11.40;10.20;;;14.60;99.90;;;;;;5073594;28;20248;-67
2023/07/23 04:46:24;;;;;;;11.83;9.90;;;14.60;99.90;;;;;;5064005;28;20225;-67
2023/07/23 04:48:54;;;;;;;13.37;9.23;;;14.60;99.90;;;;;;5071109;28;20269;-67
2023/07/23 04:51:21;;;;;;;10.47;9.33;;;14.60;99.90;;;;;;5081647;28;20214;-67
2023/07/23 04:53:48;;;;;;;13.27;10.10;;;14.60;99.90;;;;;;5078532;28;20194;-67
2023/07/23 04:56:14;;;;;;;14.43;10.70;;;14.60;99.90;;;;;;5074577;28;20198;-67
2023/07/23 04:58:41;;;;;;;13.07;10.13;;;14.70;99.90;;;;;;5071554;28;20255;-67
2023/07/23 05:01:11;;;;;;;9.93;8.93;;;14.60;99.90;;;;;;5061704;28;20932;-67
2023/07/23 05:03:38;;;;;;;13.17;9.27;;;14.70;99.90;;;;;;5077844;28;20205;-67
2023/07/23 05:06:07;;;;;;;10.70;8.63;;;14.70;99.90;;;;;;5076375;28;20484;-66
2023/07/23 05:08:34;;;;;;;9.47;8.53;;;14.70;99.90;;;;;;5082231;28;20757;-68
2023/07/23 05:11:02;;;;;;;10.87;7.67;;;14.70;99.90;;;;;;5073258;28;20795;-68
2023/07/23 05:13:30;;;;;;;14.00;8.30;;;14.70;99.90;;;;;;5080038;28;20200;-67
2023/07/23 05:15:58;;;;;;;10.17;7.93;;;14.70;99.90;;;;;;5061755;28;20209;-67
2023/07/23 05:18:25;;;;;;;9.70;7.23;;;14.70;99.90;;;;;;5082383;28;20205;-67
2023/07/23 05:20:52;;;;;;;9.17;7.57;;;14.70;99.90;;;;;;5071263;28;20230;-67
2023/07/23 05:23:21;;;;;;;8.97;7.70;;;14.70;99.90;;;;;;5080212;28;20197;-67
2023/07/23 05:25:47;;;;;;;11.20;7.33;;;14.70;99.90;;;;;;5072858;28;20736;-67
2023/07/23 05:28:15;;;;;;;10.50;6.80;;;14.70;99.90;;;;;;5082448;28;20186;-67
2023/07/23 05:30:41;;;;;;;7.40;6.70;;;14.70;99.90;;;;;;5070295;28;20823;-67
2023/07/23 05:33:09;;;;;;;9.03;7.17;;;14.70;99.90;;;;;;5075525;28;20182;-67
2023/07/23 05:35:36;;;;;;;10.77;7.50;;;14.70;99.90;;;;;;5080649;28;20546;-67
2023/07/23 05:38:03;;;;;;;9.67;6.47;;;14.70;99.90;;;;;;5069257;28;20186;-67
2023/07/23 05:40:35;;;;;;;7.57;6.63;;;14.70;99.90;;;;;;5075637;28;20301;-67
2023/07/23 05:43:08;;;;;;;10.07;6.37;;;14.70;99.90;;;;;;5073881;28;20410;-67
2023/07/23 05:45:35;;;;;;;8.17;6.83;;;14.70;99.90;;;;;;5081610;28;20247;-67
2023/07/23 05:48:02;;;;;;;9.57;6.63;;;14.70;99.90;;;;;;5062937;28;20245;-66
2023/07/23 05:50:29;;;;;;;8.20;6.57;;;14.70;99.90;;;;;;5080109;28;20221;-67
2023/07/23 05:52:56;;;;;;;9.70;7.17;;;14.70;99.90;;;;;;5063637;28;20251;-66
2023/07/23 05:55:23;;;;;;;6.93;6.23;;;14.70;99.90;;;;;;5080522;28;20198;-66
2023/07/23 05:57:51;;;;;;;6.33;5.73;;;14.70;99.90;;;;;;5079640;28;20588;-67
2023/07/23 06:00:18;;;;;;;7.67;6.10;;;14.70;99.90;;;;;;5077804;28;20269;-67
2023/07/23 06:02:45;;;;;;;7.90;6.23;;;14.70;99.90;;;;;;5065845;28;20285;-67
2023/07/23 06:05:11;;;;;;;7.30;6.03;;;14.80;99.90;;;;;;5075107;28;20630;-67
2023/07/23 06:07:38;;;;;;;7.57;6.30;;;14.80;99.90;;;;;;5063992;28;20286;-67
2023/07/23 06:10:06;;;;;;;7.53;6.00;;;14.80;99.90;;;;;;5081412;28;20205;-67
2023/07/23 06:12:34;;;;;;;6.53;5.90;;;14.90;99.90;;;;;;5081980;28;20197;-68
2023/07/23 06:15:02;;;;;;;7.03;5.93;;;14.90;99.90;;;;;;5068112;28;20818;-67
2023/07/23 06:17:29;;;;;;;6.40;5.80;;;14.90;99.90;;;;;;5084577;28;20186;-67
2023/07/23 06:19:56;;;;;;;6.30;5.40;;;15.00;99.90;;;;;;5058796;28;20201;-67
2023/07/23 06:22:23;;;;;;;6.77;5.53;;;15.00;99.90;;;;;;5082742;28;20724;-67
2023/07/23 06:24:50;;;;;;;6.00;5.40;;;15.00;99.90;;;;;;5075192;28;20194;-67
2023/07/23 06:27:17;;;;;;;7.03;5.00;;;15.10;99.90;;;;;;5087210;28;20840;-67
2023/07/23 06:29:44;;;;;;;6.40;5.40;;;15.10;99.90;;;;;;5069380;28;20214;-67
2023/07/23 06:32:12;;;;;;;8.50;6.23;;;15.10;99.90;;;;;;5083696;28;20193;-66
2023/07/23 06:34:39;;;;;;;5.67;5.17;;;15.10;99.90;;;;;;5063999;28;20193;-67
2023/07/23 06:37:06;;;;;;;7.23;5.40;;;15.10;99.90;;;;;;5081042;28;20546;-67
2023/07/23 06:39:34;;;;;;;6.67;5.37;;;15.10;99.90;;;;;;5076766;28;20214;-66
2023/07/23 06:42:01;;;;;;;7.57;5.70;;;15.20;99.90;;;;;;5084735;28;20829;-66
2023/07/23 06:44:28;;;;;;;7.43;5.80;;;15.20;99.90;;;;;;5079073;28;20202;-67
2023/07/23 06:46:57;;;;;;;5.97;5.47;;;15.20;99.90;;;;;;5079221;28;20237;-67
2023/07/23 06:49:28;;;;;;;9.20;5.87;;;15.20;99.90;;;;;;5079976;28;20212;-66
2023/07/23 06:51:55;;;;;;;7.43;5.83;;;15.20;99.90;;;;;;5065023;28;20206;-67
2023/07/23 06:54:22;;;;;;;7.37;5.37;;;15.30;99.90;;;;;;5086172;28;20185;-67
2023/07/23 06:56:51;;;;;;;8.67;5.93;;;15.30;99.90;;;;;;5073490;28;20181;-66
2023/07/23 06:59:18;;;;;;;6.73;5.33;;;15.30;99.90;;;;;;5083004;28;20277;-67
2023/07/23 07:01:45;;;;;;;6.97;6.07;;;15.30;99.90;;;;;;5068575;28;20237;-67
2023/07/23 07:04:12;;;;;;;7.00;5.83;;;15.30;99.90;;;;;;5082838;28;20190;-67
2023/07/23 07:06:40;;;;;;;9.07;5.90;;;15.40;99.90;;;;;;5066608;28;20267;-66
2023/07/23 07:09:07;;;;;;;6.47;5.50;;;15.30;99.90;;;;;;5085190;28;20198;-67
2023/07/23 07:11:34;;;;;;;6.90;5.73;;;15.40;99.90;;;;;;5075600;28;20708;-66
2023/07/23 07:14:00;;;;;;;7.27;5.73;;;15.40;99.90;;;;;;5081637;28;20243;-67
2023/07/23 07:16:27;;;;;;;6.60;5.70;;;15.40;99.90;;;;;;5069774;28;20186;-67
2023/07/23 07:18:54;;;;;;;5.70;5.20;;;15.40;99.90;;;;;;5082477;28;20178;-66
2023/07/23 07:21:21;;;;;;;9.50;6.53;;;15.40;99.90;;;;;;5086105;28;20229;-67
2023/07/23 07:23:49;;;;;;;6.63;5.97;;;15.40;99.90;;;;;;5082334;28;20288;-67
2023/07/23 07:26:16;;;;;;;6.27;5.63;;;15.40;99.90;;;;;;5074230;28;20701;-67
2023/07/23 07:28:43;;;;;;;10.27;7.20;;;15.40;99.90;;;;;;5077404;28;20720;-66
2023/07/23 07:31:11;;;;;;;9.70;6.70;;;15.50;99.90;;;;;;5070297;28;20614;-67
2023/07/23 07:33:39;;;;;;;8.67;6.60;;;15.50;99.90;;;;;;5083295;28;20198;-67
2023/07/23 07:36:05;;;;;;;8.40;6.93;;;15.60;99.90;;;;;;5085347;28;20685;-67
2023/07/23 07:38:32;;;;;;;8.80;6.70;;;15.60;99.90;;;;;;5066903;28;20648;-66
2023/07/23 07:41:01;;;;;;;7.90;7.10;;;15.60;99.90;;;;;;5079858;28;20206;-68
2023/07/23 07:43:28;;;;;;;8.27;7.37;;;15.70;99.90;;;;;;5069847;28;20225;-67
2023/07/23 07:45:59;;;;;;;8.17;7.00;;;15.70;99.90;;;;;;5070182;28;20209;-67
2023/07/23 07:48:26;;;;;;;10.03;6.73;;;15.60;99.90;;;;;;5085701;28;20195;-66
2023/07/23 07:50:59;;;;;;;9.37;7.33;;;15.70;99.90;;;;;;5081141;28;21077;-67
2023/07/23 07:53:26;;;;;;;10.27;8.10;;;15.80;99.90;;;;;;5068528;28;20198;-67
2023/07/23 07:55:53;;;;;;;10.43;8.10;;;15.80;99.90;;;;;;5078217;28;20284;-67
2023/07/23 07:58:24;;;;;;;8.27;7.10;;;15.80;99.90;;;;;;5069519;28;20636;-67
2023/07/23 08:00:53;;;;;;;9.50;7.40;;;15.90;99.90;;;;;;5081578;28;20908;-67
2023/07/23 08:03:20;;;;;;;11.43;8.00;;;15.90;99.90;;;;;;5078535;28;20206;-67
2023/07/23 08:05:47;;;;;;;10.53;7.97;;;15.90;99.90;;;;;;5081945;28;20399;-67
2023/07/23 08:08:17;;;;;;;8.83;7.40;;;16.00;99.90;;;;;;5066774;28;20210;-67
2023/07/23 08:10:46;;;;;;;9.73;8.27;;;16.00;99.90;;;;;;5068314;28;20935;-67
2023/07/23 08:13:15;;;;;;;8.93;7.87;;;16.00;99.90;;;;;;5070938;28;20198;-67
2023/07/23 08:15:43;;;;;;;11.67;7.47;;;16.10;99.90;;;;;;5080662;28;20553;-67
2023/07/23 08:18:11;;;;;;;9.07;7.43;;;16.10;99.90;;;;;;5078318;28;20221;-67
2023/07/23 08:20:38;;;;;;;9.63;8.63;;;16.00;99.90;;;;;;5075383;28;20230;-67
2023/07/23 08:23:06;;;;;;;9.43;8.40;;;16.10;99.90;;;;;;5081680;28;20217;-67
2023/07/23 08:25:33;;;;;;;8.77;7.73;;;16.20;99.90;;;;;;5058539;28;20218;-67
2023/07/23 08:28:00;;;;;;;8.77;7.97;;;16.20;99.90;;;;;;5081515;28;20213;-67
2023/07/23 08:30:28;;;;;;;9.40;7.70;;;16.20;99.90;;;;;;5069951;28;20316;-67
2023/07/23 08:32:57;;;;;;;8.80;7.47;;;16.20;99.90;;;;;;5080845;28;20194;-67
2023/07/23 08:35:25;;;;;;;9.83;7.37;;;16.30;99.90;;;;;;5077907;28;20248;-67
2023/07/23 08:37:52;;;;;;;10.60;7.53;;;16.30;99.90;;;;;;5076193;28;20267;-67
2023/07/23 08:40:20;;;;;;;8.90;7.43;;;16.40;99.90;;;;;;5060799;28;20233;-67
2023/07/23 08:43:29;;;;;;;10.20;7.13;;;16.40;99.90;;;;;;5080673;28;20186;-67
2023/07/23 08:46:21;;;;;;;8.63;6.97;;;16.40;99.90;;;;;;5074242;28;20210;-67
2023/07/23 08:49:08;;;;;;;8.40;7.30;;;16.40;99.90;;;;;;5075024;28;20278;-67
2023/07/23 08:51:43;;;;;;;8.23;7.10;;;16.40;99.90;;;;;;5069562;28;20267;-67
2023/07/23 08:54:11;;;;;;;8.70;7.80;;;16.50;99.90;;;;;;5061141;28;20202;-67
2023/07/23 08:56:39;;;;;;;9.30;7.80;;;16.50;99.90;;;;;;5081424;28;20194;-67
2023/07/23 08:59:07;;;;;;;8.93;7.43;;;16.60;99.90;;;;;;5084010;28;20769;-67
2023/07/23 09:01:35;;;;;;;8.57;7.33;;;16.60;99.90;;;;;;5072743;28;20218;-66
2023/07/23 09:04:04;;;;;;;10.17;7.60;;;16.70;99.90;;;;;;5082175;28;20852;-67
2023/07/23 09:06:32;;;;;;;9.63;7.40;;;16.80;99.90;;;;;;5067596;28;20213;-66
2023/07/23 09:09:07;;;;;;;8.47;6.97;;;16.80;99.90;;;;;;5078810;28;20259;-67
2023/07/23 09:11:35;;;;;;;7.90;7.10;;;16.70;99.90;;;;;;5063714;28;20218;-67
2023/07/23 09:14:03;;;;;;;8.57;7.57;;;16.70;99.90;;;;;;5082611;28;20182;-67
2023/07/23 09:16:30;;;;;;;8.03;7.23;;;16.70;99.90;;;;;;5080866;28;20313;-67
2023/07/23 09:18:56;;;;;;;10.67;7.47;;;16.80;99.90;;;;;;5072921;28;20216;-67
2023/07/23 09:21:25;;;;;;;9.13;7.47;;;16.80;99.90;;;;;;5075681;28;20234;-67
2023/07/23 09:23:54;;;;;;;9.10;7.07;;;16.90;99.90;;;;;;5070441;28;20194;-67
2023/07/23 09:26:24;;;;;;;11.57;7.90;;;16.90;99.90;;;;;;5066435;28;20233;-67
2023/07/23 09:28:53;;;;;;;9.30;7.80;;;17.00;99.90;;;;;;5080147;28;20200;-67
2023/07/23 09:31:26;;;;;;;10.13;8.13;;;17.10;99.90;;;;;;5083391;28;20297;-67
2023/07/23 09:33:58;;;;;;;8.77;7.07;;;17.10;99.90;;;;;;5058465;28;20848;-67
2023/07/23 09:36:26;;;;;;;9.57;7.93;;;17.10;99.90;;;;;;5078853;28;20531;-67
2023/07/23 09:38:59;;;;;;;10.00;7.47;;;17.10;99.90;;;;;;5072754;28;20254;-67
2023/07/23 09:41:31;;;;;;;7.73;7.03;;;17.10;99.90;;;;;;5081020;28;20205;-67
2023/07/23 09:44:00;;;;;;;9.50;7.90;;;17.10;99.90;;;;;;5073893;28;20279;-67
2023/07/23 09:46:27;;;;;;;10.03;7.30;;;17.10;99.90;;;;;;5079092;28;20190;-67
2023/07/23 09:48:54;;;;;;;10.27;7.77;;;17.10;99.90;;;;;;5059180;28;20993;-67
2023/07/23 09:51:22;;;;;;;8.73;7.73;;;17.20;99.90;;;;;;5081701;28;20259;-67
2023/07/23 09:53:49;;;;;;;8.20;7.40;;;17.20;99.90;;;;;;5072493;28;20874;-67
2023/07/23 09:56:18;;;;;;;8.33;7.53;;;17.30;99.90;;;;;;5083906;28;20196;-67
2023/07/23 09:58:47;;;;;;;9.20;7.53;;;17.30;99.90;;;;;;5058066;28;20448;-67
2023/07/23 10:01:16;;;;;;;9.80;8.07;;;17.30;99.90;;;;;;5075972;28;20205;-67
2023/07/23 10:03:44;;;;;;;8.30;7.37;;;17.30;99.90;;;;;;5067343;28;20259;-67
2023/07/23 10:06:12;;;;;;;9.73;8.60;;;17.30;99.90;;;;;;5083320;28;20569;-67
2023/07/23 10:08:42;;;;;;;13.93;8.07;;;17.30;99.90;;;;;;5075024;28;20594;-67
2023/07/23 10:11:10;;;;;;;9.60;8.00;;;17.40;99.90;;;;;;5082635;28;20226;-67
2023/07/23 10:13:39;;;;;;;9.07;8.17;;;17.40;99.90;;;;;;5067182;28;20876;-67
2023/07/23 10:16:09;;;;;;;9.37;8.47;;;17.50;99.90;;;;;;5069987;28;20189;-67
2023/07/23 10:18:40;;;;;;;10.83;8.63;;;17.60;99.90;;;;;;5073847;28;20563;-67
2023/07/23 10:21:08;;;;;;;9.03;8.13;;;17.70;99.90;;;;;;5081082;28;20224;-67
2023/07/23 10:23:36;;;;;;;11.70;8.67;;;17.70;99.90;;;;;;5081088;28;20194;-67
2023/07/23 10:26:20;;;;;;;9.43;8.20;;;17.80;99.90;;;;;;5075388;28;20832;-67
2023/07/23 10:28:49;;;;;;;9.50;8.50;;;17.90;99.90;;;;;;5072621;28;20595;-67
2023/07/23 10:31:21;;;;;;;9.40;8.40;;;17.90;99.90;;;;;;5060286;28;20222;-67
2023/07/23 10:33:49;;;;;;;11.27;8.53;;;18.00;99.90;;;;;;5071910;28;20572;-67
2023/07/23 10:36:17;;;;;;;9.97;8.37;;;18.00;99.90;;;;;;5083355;28;20272;-67
2023/07/23 10:38:44;;;;;;;13.80;8.93;;;18.10;99.90;;;;;;5079568;28;20557;-67
2023/07/23 10:41:11;;;;;;;10.67;8.83;;;18.20;99.90;;;;;;5074480;28;20230;-67
2023/07/23 10:43:43;;;;;;;12.03;8.70;;;18.20;99.90;;;;;;5073819;28;20194;-67
2023/07/23 10:46:13;;;;;;;13.33;8.83;;;18.10;99.90;;;;;;5062871;28;20677;-67
2023/07/23 10:48:41;;;;;;;9.63;8.63;;;18.00;99.90;;;;;;5082425;28;20214;-66
2023/07/23 10:51:09;;;;;;;11.23;8.80;;;18.00;99.90;;;;;;5070071;28;20310;-67
2023/07/23 10:53:54;;;;;;;9.17;8.20;;;18.00;99.90;;;;;;5084493;28;20281;-67
2023/07/23 10:56:26;;;;;;;9.97;8.70;;;18.00;99.90;;;;;;5076270;28;20871;-67
2023/07/23 10:58:57;;;;;;;9.97;8.93;;;18.00;99.90;;;;;;5078240;28;20194;-67
2023/07/23 11:01:27;;;;;;;9.50;8.50;;;18.00;99.90;;;;;;5069179;28;20221;-67
2023/07/23 11:03:58;;;;;;;11.97;7.57;;;18.00;99.90;;;;;;5083969;28;20190;-67
2023/07/23 11:06:30;;;;;;;10.33;8.50;;;18.10;99.90;;;;;;5070188;28;20669;-67
2023/07/23 11:08:59;;;;;;;11.87;9.00;;;18.00;99.90;;;;;;5078096;28;20220;-67
2023/07/23 11:11:31;;;;;;;12.97;8.47;;;18.00;99.90;;;;;;5074102;28;20225;-66
2023/07/23 11:13:58;;;;;;;8.77;7.70;;;18.00;99.90;;;;;;5080298;28;20796;-68
2023/07/23 11:16:27;;;;;;;8.43;7.60;;;18.00;99.90;;;;;;5064429;28;20214;-67
2023/07/23 11:18:55;;;;;;;10.03;7.97;;;18.00;99.90;;;;;;5079801;28;20201;-67
2023/07/23 11:21:27;;;;;;;11.33;8.27;;;18.00;99.90;;;;;;5081373;28;20246;-67
2023/07/23 11:23:54;;;;;;;8.87;7.87;;;18.00;99.90;;;;;;5064642;28;20900;-67
2023/07/23 11:26:22;;;;;;;11.27;7.80;;;18.00;99.90;;;;;;5075630;28;20186;-67
2023/07/23 11:28:51;;;;;;;11.90;7.50;;;17.90;99.90;;;;;;5077874;28;20259;-67
2023/07/23 11:31:18;;;;;;;10.87;7.90;;;17.90;99.90;;;;;;5055690;28;20233;-67
2023/07/23 11:33:46;;;;;;;10.80;7.77;;;17.80;99.90;;;;;;5084614;28;20201;-68
2023/07/23 11:36:13;;;;;;;10.53;7.47;;;17.80;99.90;;;;;;5082654;28;20193;-68
2023/07/23 11:38:40;;;;;;;9.67;8.27;;;17.70;99.90;;;;;;5067833;28;20206;-67
2023/07/23 11:41:06;;;;;;;10.83;8.17;;;17.70;99.90;;;;;;5074714;28;20237;-67
2023/07/23 11:43:34;;;;;;;9.93;7.80;;;17.70;99.90;;;;;;5084048;28;20193;-68
2023/07/23 11:46:01;;;;;;;13.87;8.27;;;17.70;99.90;;;;;;5085225;28;20194;-67
2023/07/23 11:48:29;;;;;;;11.90;7.97;;;17.60;99.90;;;;;;5061770;28;20217;-68
2023/07/23 11:50:59;;;;;;;9.20;8.30;;;17.70;99.90;;;;;;5080669;28;20260;-67
2023/07/23 11:53:33;;;;;;;8.80;7.90;;;17.70;99.90;;;;;;5062780;28;20322;-67
2023/07/23 11:56:08;;;;;;;9.07;8.17;;;17.60;99.90;;;;;;5083258;28;20318;-67
2023/07/23 11:58:36;;;;;;;10.67;8.30;;;17.60;99.90;;;;;;5082555;28;20852;-67
2023/07/23 12:01:04;;;;;;;10.30;7.97;;;17.70;99.90;;;;;;5081465;28;20593;-67
2023/07/23 12:03:33;;;;;;;7.70;6.87;;;17.70;99.90;;;;;;5071786;28;20931;-68
2023/07/23 12:06:03;;;;;;;6.73;6.13;;;17.60;99.90;;;;;;5074987;28;20190;-67
2023/07/23 12:08:30;;;;;;;7.53;5.60;;;17.50;99.90;;;;;;5065909;28;20230;-67
2023/07/23 12:10:57;;;;;;;6.33;5.20;;;17.40;99.90;;;;;;5076293;28;20230;-67
2023/07/23 12:13:26;;;;;;;6.37;5.27;;;17.40;99.90;;;;;;5081020;28;20190;-67
2023/07/23 12:15:57;;;;;;;8.13;5.27;;;17.40;99.90;;;;;;5075839;28;20304;-67
2023/07/23 12:18:26;;;;;;;4.83;4.40;;;17.40;99.90;;;;;;5081465;28;20191;-67
2023/07/23 12:20:58;;;;;;;5.40;4.40;;;17.50;99.90;;;;;;5048429;28;20226;-67
2023/07/23 12:23:26;;;;;;;4.70;4.27;;;17.40;99.90;;;;;;5067635;28;20232;-67
2023/07/23 12:25:53;;;;;;;5.77;5.00;;;17.30;99.90;;;;;;5068472;28;20194;-67
2023/07/23 12:28:24;;;;;;;5.33;4.83;;;17.30;99.90;;;;;;5075290;28;20218;-67
2023/07/23 12:30:51;;;;;;;5.93;5.43;;;17.20;99.90;;;;;;5069472;28;20846;-67
2023/07/23 12:33:18;;;;;;;6.57;5.90;;;17.20;99.90;;;;;;5077641;28;20200;-66
2023/07/23 12:35:44;;;;;;;5.97;5.37;;;17.20;99.90;;;;;;5062975;28;20190;-67
2023/07/23 12:38:11;;;;;;;6.77;5.70;;;17.30;99.90;;;;;;5076085;28;20216;-67
2023/07/23 12:40:39;;;;;;;6.00;5.50;;;17.20;99.90;;;;;;5073778;28;20231;-67
2023/07/23 12:43:06;;;;;;;6.43;5.83;;;17.20;99.90;;;;;;5081583;28;20271;-67
2023/07/23 12:45:36;;;;;;;6.33;5.70;;;17.20;99.90;;;;;;5074246;28;20267;-67